createdAt,value
2023-02-13T00:00:34.359Z,11.00
2023-02-13T00:01:36.163Z,11.10
2023-02-13T00:02:37.991Z,12.82
2023-02-13T00:03:39.828Z,11.25
2023-02-13T00:04:43.100Z,11.13
2023-02-13T00:05:44.879Z,10.47
2023-02-13T00:06:47.954Z,10.77
2023-02-13T00:07:49.782Z,10.77
2023-02-13T00:08:51.533Z,10.05
2023-02-13T00:09:53.283Z,9.80
2023-02-13T00:10:55.394Z,10.02
2023-02-13T00:11:57.340Z,10.77
2023-02-13T00:12:59.173Z,9.60
2023-02-13T00:14:00.953Z,10.88
2023-02-13T00:15:03.513Z,10.73
2023-02-13T00:16:06.269Z,10.90
2023-02-13T00:17:08.061Z,11.23
2023-02-13T00:18:09.845Z,11.30
2023-02-13T00:19:11.679Z,11.57
2023-02-13T00:20:13.581Z,12.18
2023-02-13T00:21:15.361Z,12.15
2023-02-13T00:22:17.112Z,12.23
2023-02-13T00:23:18.820Z,12.95
2023-02-13T00:24:20.697Z,12.55
2023-02-13T00:25:22.487Z,11.02
2023-02-13T00:26:24.255Z,12.13
2023-02-13T00:27:25.982Z,12.10
2023-02-13T00:28:28.158Z,12.75
2023-02-13T00:29:29.944Z,12.95
2023-02-13T00:30:31.664Z,12.20
2023-02-13T00:31:33.543Z,11.40
2023-02-13T00:32:35.418Z,11.70
2023-02-13T00:33:38.073Z,12.20
2023-02-13T00:34:39.916Z,12.05
2023-02-13T00:35:41.670Z,11.80
2023-02-13T00:36:43.538Z,12.53
2023-02-13T00:37:45.285Z,12.57
2023-02-13T00:38:47.615Z,12.68
2023-02-13T00:39:49.382Z,12.70
2023-02-13T00:40:51.074Z,13.25
2023-02-13T00:41:52.857Z,13.43
2023-02-13T00:42:54.700Z,12.65
2023-02-13T00:43:56.550Z,12.25
2023-02-13T00:44:58.276Z,11.52
2023-02-13T00:46:00.374Z,12.15
2023-02-13T00:47:02.149Z,11.17
2023-02-13T00:48:04.045Z,11.65
2023-02-13T00:49:07.164Z,11.35
2023-02-13T00:50:09.278Z,12.68
2023-02-13T00:51:11.555Z,11.85
2023-02-13T00:52:13.647Z,12.18
2023-02-13T00:53:15.414Z,12.15
2023-02-13T00:54:17.249Z,12.15
2023-02-13T00:55:18.993Z,12.52
2023-02-13T00:56:38.991Z,11.95
2023-02-13T00:57:40.725Z,11.63
2023-02-13T00:58:42.544Z,11.73
2023-02-13T00:59:44.312Z,12.65
2023-02-13T01:00:47.346Z,12.05
2023-02-13T01:01:49.123Z,11.45
2023-02-13T01:02:50.882Z,11.80
2023-02-13T01:03:52.682Z,11.75
2023-02-13T01:04:54.454Z,11.88
2023-02-13T01:05:58.112Z,11.65
2023-02-13T01:06:59.911Z,12.63
2023-02-13T01:08:01.722Z,12.03
2023-02-13T01:09:04.382Z,12.18
2023-02-13T01:10:07.247Z,13.02
2023-02-13T01:11:09.306Z,13.05
2023-02-13T01:12:11.086Z,15.05
2023-02-13T01:13:14.627Z,14.60
2023-02-13T01:14:16.378Z,13.68
2023-02-13T01:15:18.346Z,13.90
2023-02-13T01:16:20.183Z,14.50
2023-02-13T01:17:21.933Z,13.50
2023-02-13T01:18:24.297Z,14.17
2023-02-13T01:19:26.060Z,13.20
2023-02-13T01:20:29.428Z,12.32
2023-02-13T01:21:31.224Z,12.82
2023-02-13T01:22:33.235Z,12.52
2023-02-13T01:23:37.686Z,12.65
2023-02-13T01:24:39.458Z,13.20
2023-02-13T01:25:42.650Z,13.63
2023-02-13T01:26:44.715Z,14.00
2023-02-13T01:27:46.580Z,12.95
2023-02-13T01:28:48.368Z,13.77
2023-02-13T01:29:50.216Z,14.40
2023-02-13T01:30:59.024Z,13.85
2023-02-13T01:32:02.587Z,14.20
2023-02-13T01:33:04.407Z,14.95
2023-02-13T01:34:06.271Z,16.13
2023-02-13T01:35:09.567Z,15.80
2023-02-13T01:36:14.126Z,14.90
2023-02-13T01:37:15.950Z,14.27
2023-02-13T01:38:18.257Z,15.05
2023-02-13T01:39:19.979Z,15.80
2023-02-13T01:40:21.802Z,14.75
2023-02-13T01:41:25.055Z,16.33
2023-02-13T01:42:30.455Z,15.43
2023-02-13T01:43:51.532Z,14.68
2023-02-13T01:44:59.425Z,14.23
2023-02-13T01:46:02.537Z,13.60
2023-02-13T01:47:04.388Z,14.88
2023-02-13T01:48:17.460Z,14.57
2023-02-13T01:49:23.433Z,15.05
2023-02-13T01:50:37.543Z,14.80
2023-02-13T01:51:40.151Z,13.77
2023-02-13T01:52:47.260Z,13.38
2023-02-13T01:54:00.673Z,13.55
2023-02-13T01:55:02.635Z,13.68
2023-02-13T01:56:17.968Z,13.82
2023-02-13T01:57:23.163Z,12.88
2023-02-13T01:58:30.036Z,13.48
2023-02-13T01:59:37.543Z,13.90
2023-02-13T02:00:39.889Z,13.07
2023-02-13T02:01:42.236Z,13.30
2023-02-13T02:03:00.331Z,13.85
2023-02-13T02:04:10.355Z,12.18
2023-02-13T02:05:12.712Z,12.18
2023-02-13T02:06:42.541Z,12.38
2023-02-13T02:07:45.806Z,12.25
2023-02-13T02:08:49.765Z,12.73
2023-02-13T02:09:55.162Z,12.25
2023-02-13T02:11:03.556Z,11.75
2023-02-13T02:12:26.518Z,11.13
2023-02-13T02:13:28.328Z,11.60
2023-02-13T02:14:30.235Z,11.88
2023-02-13T02:15:32.130Z,12.05
2023-02-13T02:16:33.881Z,11.82
2023-02-13T02:17:35.954Z,12.40
2023-02-13T02:18:37.695Z,12.55
2023-02-13T02:19:48.312Z,12.40
2023-02-13T02:20:53.012Z,11.95
2023-02-13T02:22:29.889Z,12.02
2023-02-13T02:23:50.189Z,11.68
2023-02-13T02:25:50.574Z,10.63
2023-02-13T02:27:49.586Z,12.25
2023-02-13T02:29:03.177Z,10.63
2023-02-13T02:30:24.432Z,11.52
2023-02-13T02:31:55.247Z,10.20
2023-02-13T02:33:23.672Z,10.77
2023-02-13T02:34:34.404Z,10.82
2023-02-13T02:36:02.278Z,10.88
2023-02-13T02:37:22.224Z,11.95
2023-02-13T02:38:36.176Z,11.05
2023-02-13T02:40:00.847Z,12.50
2023-02-13T02:41:43.617Z,10.95
2023-02-13T02:42:48.057Z,11.82
2023-02-13T02:44:09.988Z,11.32
2023-02-13T02:45:23.262Z,12.00
2023-02-13T02:46:36.214Z,11.77
2023-02-13T02:48:15.386Z,11.68
2023-02-13T02:49:37.040Z,11.68
2023-02-13T02:50:53.531Z,11.68
2023-02-13T02:52:16.040Z,12.00
2023-02-13T02:53:43.084Z,11.27
2023-02-13T02:55:06.461Z,11.13
2023-02-13T02:56:18.475Z,12.05
2023-02-13T02:57:52.236Z,11.80
2023-02-13T02:59:25.004Z,11.90
2023-02-13T03:00:47.916Z,14.45
2023-02-13T03:02:11.852Z,13.10
2023-02-13T03:03:41.647Z,12.63
2023-02-13T03:05:06.738Z,11.20
2023-02-13T03:06:21.493Z,12.18
2023-02-13T03:07:23.266Z,13.13
2023-02-13T03:08:45.226Z,12.43
2023-02-13T03:10:12.263Z,11.82
2023-02-13T03:11:32.899Z,14.38
2023-02-13T03:13:20.611Z,12.85
2023-02-13T03:14:26.308Z,11.68
2023-02-13T03:15:29.452Z,12.55
2023-02-13T03:17:09.823Z,12.88
2023-02-13T03:18:29.715Z,12.70
2023-02-13T03:20:14.115Z,12.68
2023-02-13T03:21:45.601Z,12.80
2023-02-13T03:23:08.552Z,11.32
2023-02-13T03:24:20.311Z,12.85
2023-02-13T03:25:35.671Z,13.23
2023-02-13T03:26:50.967Z,12.40
2023-02-13T03:28:36.228Z,13.18
2023-02-13T03:30:04.682Z,11.23
2023-02-13T03:31:29.344Z,11.93
2023-02-13T03:33:01.759Z,12.40
2023-02-13T03:34:10.678Z,12.32
2023-02-13T03:36:01.898Z,13.03
2023-02-13T03:37:28.792Z,11.60
2023-02-13T03:38:42.344Z,11.82
2023-02-13T03:40:31.860Z,11.57
2023-02-13T03:41:40.114Z,11.93
2023-02-13T03:43:07.373Z,10.77
2023-02-13T03:44:34.446Z,12.07
2023-02-13T03:45:53.730Z,11.52
2023-02-13T03:46:59.076Z,11.05
2023-02-13T03:48:10.102Z,10.63
2023-02-13T03:49:45.099Z,10.93
2023-02-13T03:50:46.935Z,10.25
2023-02-13T03:52:00.494Z,11.25
2023-02-13T03:53:11.773Z,11.23
2023-02-13T03:54:45.727Z,11.80
2023-02-13T03:56:07.381Z,10.98
2023-02-13T03:57:29.862Z,11.93
2023-02-13T03:58:54.957Z,10.68
2023-02-13T03:59:58.600Z,10.23
2023-02-13T04:01:05.172Z,10.75
2023-02-13T04:02:22.465Z,9.83
2023-02-13T04:03:49.956Z,11.32
2023-02-13T04:05:00.422Z,10.32
2023-02-13T04:06:11.049Z,10.20
2023-02-13T04:07:29.389Z,10.10
2023-02-13T04:08:31.444Z,10.82
2023-02-13T04:09:37.292Z,11.43
2023-02-13T04:11:03.267Z,11.10
2023-02-13T04:12:19.563Z,10.38
2023-02-13T04:13:25.885Z,9.68
2023-02-13T04:14:39.956Z,10.53
2023-02-13T04:15:47.938Z,10.15
2023-02-13T04:17:05.989Z,10.30
2023-02-13T04:18:16.442Z,10.35
2023-02-13T04:19:18.919Z,9.60
2023-02-13T04:20:20.850Z,10.02
2023-02-13T04:21:22.894Z,10.02
2023-02-13T04:22:24.776Z,9.68
2023-02-13T04:23:26.473Z,10.98
2023-02-13T04:24:28.724Z,10.05
2023-02-13T04:25:30.515Z,10.50
2023-02-13T04:26:43.370Z,10.82
2023-02-13T04:27:45.263Z,9.98
2023-02-13T04:28:47.466Z,10.85
2023-02-13T04:29:49.248Z,10.55
2023-02-13T04:30:51.225Z,11.63
2023-02-13T04:31:53.147Z,11.18
2023-02-13T04:32:55.004Z,11.23
2023-02-13T04:33:56.933Z,10.05
2023-02-13T04:34:58.642Z,10.85
2023-02-13T04:36:00.453Z,10.80
2023-02-13T04:37:02.188Z,11.18
2023-02-13T04:38:04.063Z,10.40
2023-02-13T04:39:05.802Z,10.73
2023-02-13T04:40:08.124Z,10.85
2023-02-13T04:41:09.889Z,10.95
2023-02-13T04:42:11.672Z,11.00
2023-02-13T04:43:13.421Z,9.77
2023-02-13T04:44:15.160Z,10.32
2023-02-13T04:45:17.576Z,10.20
2023-02-13T04:46:19.535Z,10.10
2023-02-13T04:47:21.390Z,10.63
2023-02-13T04:48:23.245Z,10.70
2023-02-13T04:49:25.025Z,10.48
2023-02-13T04:50:26.819Z,10.80
2023-02-13T04:51:28.616Z,10.25
2023-02-13T04:52:30.360Z,9.75
2023-02-13T04:53:32.091Z,10.63
2023-02-13T04:54:33.810Z,10.70
2023-02-13T04:55:35.646Z,9.88
2023-02-13T04:56:37.408Z,9.27
2023-02-13T04:57:39.183Z,10.35
2023-02-13T04:58:42.054Z,9.35
2023-02-13T04:59:43.812Z,9.98
2023-02-13T05:00:45.605Z,9.20
2023-02-13T05:01:47.462Z,9.27
2023-02-13T05:02:49.269Z,8.57
2023-02-13T05:03:50.975Z,9.32
2023-02-13T05:04:52.745Z,9.10
2023-02-13T05:05:54.571Z,8.70
2023-02-13T05:06:56.329Z,9.20
2023-02-13T05:07:58.053Z,9.40
2023-02-13T05:08:59.793Z,9.20
2023-02-13T05:10:01.515Z,10.02
2023-02-13T05:11:03.395Z,9.50
2023-02-13T05:12:05.329Z,9.13
2023-02-13T05:13:07.387Z,10.13
2023-02-13T05:14:11.340Z,10.40
2023-02-13T05:15:13.067Z,9.82
2023-02-13T05:16:15.142Z,9.63
2023-02-13T05:17:16.868Z,9.53
2023-02-13T05:18:19.404Z,9.07
2023-02-13T05:19:21.113Z,9.57
2023-02-13T05:20:22.947Z,10.20
2023-02-13T05:21:43.464Z,10.10
2023-02-13T05:23:12.958Z,9.65
2023-02-13T05:24:14.704Z,9.68
2023-02-13T05:25:16.531Z,10.18
2023-02-13T05:26:18.315Z,11.02
2023-02-13T05:27:20.069Z,11.02
2023-02-13T05:28:40.549Z,10.77
2023-02-13T05:29:42.316Z,9.52
2023-02-13T05:30:44.034Z,9.52
2023-02-13T05:31:47.230Z,10.23
2023-02-13T05:32:50.872Z,10.95
2023-02-13T05:33:52.594Z,10.80
2023-02-13T05:34:54.336Z,10.45
2023-02-13T05:35:56.081Z,10.35
2023-02-13T05:36:58.131Z,9.40
2023-02-13T05:37:59.878Z,11.25
2023-02-13T05:39:01.607Z,10.97
2023-02-13T05:40:03.498Z,9.65
2023-02-13T05:41:05.355Z,10.57
2023-02-13T05:42:07.178Z,11.38
2023-02-13T05:43:08.941Z,10.88
2023-02-13T05:44:11.493Z,11.18
2023-02-13T05:45:13.275Z,10.50
2023-02-13T05:46:15.667Z,11.00
2023-02-13T05:47:17.464Z,10.68
2023-02-13T05:48:19.200Z,10.77
2023-02-13T05:49:21.063Z,10.37
2023-02-13T05:50:23.061Z,11.20
2023-02-13T05:51:24.825Z,10.70
2023-02-13T05:52:27.102Z,10.80
2023-02-13T05:53:29.785Z,10.90
2023-02-13T05:54:31.670Z,10.85
2023-02-13T05:55:33.357Z,11.40
2023-02-13T05:56:35.086Z,10.70
2023-02-13T05:57:36.889Z,11.18
2023-02-13T05:58:38.669Z,11.23
2023-02-13T05:59:40.437Z,11.07
2023-02-13T06:00:42.146Z,10.68
2023-02-13T06:01:43.877Z,10.68
2023-02-13T06:02:45.747Z,9.60
2023-02-13T06:03:47.861Z,10.80
2023-02-13T06:04:49.691Z,12.52
2023-02-13T06:05:52.259Z,11.25
2023-02-13T06:06:54.028Z,11.27
2023-02-13T06:07:55.762Z,11.82
2023-02-13T06:08:57.576Z,11.27
2023-02-13T06:09:59.654Z,10.53
2023-02-13T06:11:01.938Z,10.93
2023-02-13T06:12:03.912Z,10.55
2023-02-13T06:13:05.719Z,11.02
2023-02-13T06:14:07.592Z,10.90
2023-02-13T06:15:09.529Z,10.88
2023-02-13T06:16:12.513Z,9.98
2023-02-13T06:17:14.239Z,10.15
2023-02-13T06:18:16.333Z,11.00
2023-02-13T06:19:18.116Z,10.73
2023-02-13T06:20:19.957Z,10.33
2023-02-13T06:21:22.621Z,11.48
2023-02-13T06:22:24.467Z,10.77
2023-02-13T06:23:26.223Z,9.93
2023-02-13T06:24:28.077Z,10.40
2023-02-13T06:25:30.097Z,9.98
2023-02-13T06:26:31.911Z,10.63
2023-02-13T06:27:33.805Z,10.75
2023-02-13T06:28:35.678Z,10.77
2023-02-13T06:29:37.481Z,11.02
2023-02-13T06:30:39.295Z,10.23
2023-02-13T06:31:41.198Z,11.00
2023-02-13T06:32:43.338Z,11.18
2023-02-13T06:33:45.074Z,10.80
2023-02-13T06:34:46.786Z,10.73
2023-02-13T06:35:48.553Z,12.05
2023-02-13T06:36:50.872Z,9.88
2023-02-13T06:37:52.865Z,10.70
2023-02-13T06:38:54.805Z,11.60
2023-02-13T06:39:56.545Z,11.20
2023-02-13T06:41:01.956Z,10.90
2023-02-13T06:42:03.749Z,11.48
2023-02-13T06:43:05.509Z,11.10
2023-02-13T06:44:07.913Z,11.38
2023-02-13T06:45:10.662Z,11.75
2023-02-13T06:46:12.458Z,10.73
2023-02-13T06:47:14.276Z,11.77
2023-02-13T06:48:16.040Z,12.10
2023-02-13T06:49:17.831Z,12.77
2023-02-13T06:50:19.628Z,12.98
2023-02-13T06:51:21.348Z,12.43
2023-02-13T06:52:23.323Z,11.70
2023-02-13T06:53:25.606Z,10.50
2023-02-13T06:54:44.804Z,11.45
2023-02-13T06:55:48.495Z,11.02
2023-02-13T06:56:50.242Z,11.35
2023-02-13T06:57:52.243Z,12.05
2023-02-13T06:58:54.066Z,10.77
2023-02-13T06:59:55.796Z,11.45
2023-02-13T07:00:57.769Z,11.27
2023-02-13T07:01:59.771Z,11.20
2023-02-13T07:03:03.843Z,11.90
2023-02-13T07:04:05.710Z,10.65
2023-02-13T07:05:07.908Z,9.95
2023-02-13T07:06:09.751Z,10.82
2023-02-13T07:07:11.470Z,10.63
2023-02-13T07:08:13.571Z,11.63
2023-02-13T07:09:16.635Z,11.18
2023-02-13T07:10:18.475Z,11.48
2023-02-13T07:11:21.364Z,10.27
2023-02-13T07:12:23.074Z,11.27
2023-02-13T07:13:24.821Z,11.13
2023-02-13T07:14:26.576Z,11.13
2023-02-13T07:15:28.543Z,11.25
2023-02-13T07:16:30.303Z,11.15
2023-02-13T07:17:32.417Z,10.63
2023-02-13T07:18:34.152Z,11.98
2023-02-13T07:19:35.876Z,11.70
2023-02-13T07:20:37.688Z,12.45
2023-02-13T07:21:39.614Z,10.23
2023-02-13T07:22:41.408Z,11.83
2023-02-13T07:23:43.169Z,11.60
2023-02-13T07:24:44.923Z,11.27
2023-02-13T07:25:46.673Z,12.13
2023-02-13T07:26:48.425Z,11.38
2023-02-13T07:27:50.209Z,12.13
2023-02-13T07:29:02.504Z,11.65
2023-02-13T07:30:12.414Z,10.45
2023-02-13T07:31:14.280Z,10.45
2023-02-13T07:32:16.216Z,11.02
2023-02-13T07:33:18.285Z,11.70
2023-02-13T07:34:20.024Z,11.43
2023-02-13T07:35:21.741Z,10.93
2023-02-13T07:36:23.459Z,11.48
2023-02-13T07:37:27.190Z,11.05
2023-02-13T07:38:29.638Z,11.48
2023-02-13T07:39:31.758Z,10.55
2023-02-13T07:40:33.824Z,11.23
2023-02-13T07:41:35.577Z,10.55
2023-02-13T07:42:37.396Z,11.35
2023-02-13T07:43:39.137Z,11.07
2023-02-13T07:44:40.949Z,10.63
2023-02-13T07:45:42.718Z,10.90
2023-02-13T07:46:44.472Z,11.30
2023-02-13T07:47:46.330Z,10.55
2023-02-13T07:48:48.224Z,10.70
2023-02-13T07:49:50.136Z,10.23
2023-02-13T07:50:52.684Z,10.48
2023-02-13T07:51:57.314Z,10.88
2023-02-13T07:53:01.663Z,10.30
2023-02-13T07:54:03.523Z,10.70
2023-02-13T07:55:05.903Z,10.57
2023-02-13T07:56:08.680Z,10.85
2023-02-13T07:57:10.407Z,10.65
2023-02-13T07:58:12.240Z,11.45
2023-02-13T07:59:14.138Z,10.68
2023-02-13T08:00:16.616Z,10.20
2023-02-13T08:01:19.928Z,10.07
2023-02-13T08:02:21.706Z,10.18
2023-02-13T08:03:23.462Z,10.55
2023-02-13T08:04:26.372Z,11.00
2023-02-13T08:05:29.419Z,9.90
2023-02-13T08:06:31.168Z,9.40
2023-02-13T08:07:33.186Z,9.85
2023-02-13T08:08:35.636Z,10.02
2023-02-13T08:09:55.820Z,10.10
2023-02-13T08:11:21.784Z,9.20
2023-02-13T08:12:23.708Z,9.00
2023-02-13T08:13:25.713Z,9.88
2023-02-13T08:14:28.018Z,9.30
2023-02-13T08:15:30.006Z,9.50
2023-02-13T08:16:31.762Z,9.90
2023-02-13T08:17:33.521Z,10.15
2023-02-13T08:18:35.320Z,9.13
2023-02-13T08:19:37.128Z,9.55
2023-02-13T08:20:38.984Z,9.02
2023-02-13T08:21:41.023Z,9.60
2023-02-13T08:22:42.786Z,9.73
2023-02-13T08:23:44.640Z,9.38
2023-02-13T08:24:46.930Z,9.60
2023-02-13T08:25:49.801Z,8.97
2023-02-13T08:26:51.534Z,8.90
2023-02-13T08:27:53.286Z,8.90
2023-02-13T08:28:54.995Z,8.45
2023-02-13T08:29:57.542Z,8.77
2023-02-13T08:30:59.347Z,8.52
2023-02-13T08:32:01.155Z,8.63
2023-02-13T08:33:02.996Z,9.25
2023-02-13T08:34:04.781Z,9.15
2023-02-13T08:35:06.686Z,8.45
2023-02-13T08:36:08.811Z,9.47
2023-02-13T08:37:10.625Z,8.93
2023-02-13T08:38:12.434Z,8.80
2023-02-13T08:39:14.175Z,8.82
2023-02-13T08:40:15.983Z,9.60
2023-02-13T08:41:19.062Z,10.07
2023-02-13T08:42:21.129Z,9.02
2023-02-13T08:43:22.873Z,9.27
2023-02-13T08:44:24.622Z,9.43
2023-02-13T08:45:26.352Z,9.55
2023-02-13T08:46:28.372Z,9.33
2023-02-13T08:47:30.145Z,8.80
2023-02-13T08:48:32.140Z,8.65
2023-02-13T08:49:34.165Z,8.38
2023-02-13T08:50:37.139Z,9.13
2023-02-13T08:51:39.272Z,7.85
2023-02-13T08:52:41.042Z,8.07
2023-02-13T08:53:43.379Z,8.30
2023-02-13T08:54:45.128Z,8.43
2023-02-13T08:56:05.421Z,8.98
2023-02-13T08:57:08.521Z,8.60
2023-02-13T08:58:10.260Z,8.43
2023-02-13T08:59:12.108Z,8.23
2023-02-13T09:00:14.717Z,8.63
2023-02-13T09:01:16.779Z,8.63
2023-02-13T09:02:18.575Z,8.25
2023-02-13T09:03:20.350Z,8.23
2023-02-13T09:04:22.140Z,8.80
2023-02-13T09:05:23.945Z,8.40
2023-02-13T09:06:28.991Z,9.50
2023-02-13T09:07:30.735Z,7.90
2023-02-13T09:08:32.805Z,8.07
2023-02-13T09:09:34.581Z,8.27
2023-02-13T09:10:36.316Z,7.68
2023-02-13T09:11:38.087Z,8.07
2023-02-13T09:12:39.854Z,8.85
2023-02-13T09:13:41.641Z,7.75
2023-02-13T09:14:44.415Z,8.05
2023-02-13T09:15:46.192Z,8.60
2023-02-13T09:16:47.941Z,8.50
2023-02-13T09:17:49.771Z,8.53
2023-02-13T09:18:51.934Z,8.27
2023-02-13T09:19:53.699Z,8.20
2023-02-13T09:20:59.949Z,8.20
2023-02-13T09:22:01.676Z,8.75
2023-02-13T09:23:04.183Z,8.77
2023-02-13T09:24:10.054Z,7.53
2023-02-13T09:25:11.829Z,9.98
2023-02-13T09:26:15.373Z,9.38
2023-02-13T09:27:17.771Z,8.43
2023-02-13T09:28:19.677Z,8.20
2023-02-13T09:29:21.560Z,8.60
2023-02-13T09:30:23.909Z,8.40
2023-02-13T09:31:28.480Z,9.25
2023-02-13T09:32:31.187Z,8.77
2023-02-13T09:33:33.087Z,9.43
2023-02-13T09:34:34.908Z,9.10
2023-02-13T09:35:36.666Z,8.38
2023-02-13T09:36:38.433Z,8.23
2023-02-13T09:37:40.154Z,9.10
2023-02-13T09:38:44.266Z,8.63
2023-02-13T09:39:46.140Z,9.17
2023-02-13T09:40:47.861Z,9.52
2023-02-13T09:41:53.021Z,9.02
2023-02-13T09:43:05.318Z,7.90
2023-02-13T09:44:33.986Z,6.82
2023-02-13T09:45:36.480Z,6.80
2023-02-13T09:46:44.099Z,8.23
2023-02-13T09:47:46.625Z,8.82
2023-02-13T09:48:55.131Z,9.15
2023-02-13T09:50:25.256Z,8.73
2023-02-13T09:51:29.416Z,8.77
2023-02-13T09:52:40.472Z,6.68
2023-02-13T09:53:48.447Z,6.63
2023-02-13T09:54:53.650Z,6.35
2023-02-13T09:56:40.027Z,6.13
2023-02-13T09:58:06.521Z,7.10
2023-02-13T09:59:18.713Z,7.85
2023-02-13T10:00:38.049Z,7.93
2023-02-13T10:01:48.822Z,8.43
2023-02-13T10:03:04.568Z,7.83
2023-02-13T10:04:31.886Z,7.47
2023-02-13T10:06:23.744Z,6.97
2023-02-13T10:07:45.978Z,7.80
2023-02-13T10:09:15.434Z,8.05
2023-02-13T10:10:25.217Z,7.32
2023-02-13T10:11:50.675Z,7.70
2023-02-13T10:13:11.804Z,8.05
2023-02-13T10:14:39.945Z,8.02
2023-02-13T10:16:03.159Z,7.38
2023-02-13T10:17:33.501Z,7.90
2023-02-13T10:19:04.827Z,6.47
2023-02-13T10:20:30.815Z,6.43
2023-02-13T10:21:51.493Z,6.90
2023-02-13T10:23:17.939Z,7.18
2023-02-13T10:24:54.013Z,6.25
2023-02-13T10:26:03.534Z,6.20
2023-02-13T10:27:28.316Z,6.28
2023-02-13T10:28:46.794Z,6.25
2023-02-13T10:30:14.173Z,6.32
2023-02-13T10:31:29.312Z,5.87
2023-02-13T10:33:19.594Z,6.20
2023-02-13T10:34:43.891Z,6.25
2023-02-13T10:36:14.440Z,6.22
2023-02-13T10:37:20.409Z,6.40
2023-02-13T10:38:27.699Z,6.07
2023-02-13T10:39:34.672Z,6.22
2023-02-13T10:40:47.178Z,5.55
2023-02-13T10:42:01.864Z,6.07
2023-02-13T10:43:18.578Z,5.82
2023-02-13T10:44:45.978Z,5.90
2023-02-13T10:46:17.896Z,5.50
2023-02-13T10:47:41.174Z,4.28
2023-02-13T10:48:58.396Z,4.78
2023-02-13T10:50:33.158Z,4.40
2023-02-13T10:51:48.321Z,4.97
2023-02-13T10:53:23.029Z,4.90
2023-02-13T10:54:58.158Z,5.15
2023-02-13T10:56:25.970Z,4.32
2023-02-13T10:58:16.592Z,4.75
2023-02-13T10:59:30.664Z,4.20
2023-02-13T11:01:01.435Z,5.17
2023-02-13T11:02:26.008Z,4.22
2023-02-13T11:03:34.920Z,5.03
2023-02-13T11:04:37.897Z,5.07
2023-02-13T11:05:46.435Z,4.63
2023-02-13T11:07:03.494Z,4.78
2023-02-13T11:08:18.922Z,4.95
2023-02-13T11:09:23.583Z,5.07
2023-02-13T11:10:30.286Z,4.45
2023-02-13T11:11:39.221Z,4.83
2023-02-13T11:12:42.332Z,4.97
2023-02-13T11:13:49.035Z,5.07
2023-02-13T11:15:27.550Z,4.57
2023-02-13T11:16:54.309Z,4.50
2023-02-13T11:18:27.155Z,4.70
2023-02-13T11:19:37.041Z,4.57
2023-02-13T11:20:44.698Z,4.80
2023-02-13T11:21:55.182Z,4.55
2023-02-13T11:23:15.709Z,5.22
2023-02-13T11:24:33.308Z,4.27
2023-02-13T11:25:41.340Z,4.63
2023-02-13T11:26:44.851Z,4.80
2023-02-13T11:27:54.945Z,4.72
2023-02-13T11:29:06.692Z,4.47
2023-02-13T11:30:34.666Z,4.43
2023-02-13T11:31:42.643Z,4.47
2023-02-13T11:33:18.597Z,4.47
2023-02-13T11:34:30.588Z,4.53
2023-02-13T11:35:37.542Z,5.40
2023-02-13T11:36:42.236Z,4.30
2023-02-13T11:37:50.947Z,4.60
2023-02-13T11:39:17.644Z,4.90
2023-02-13T11:40:31.698Z,4.38
2023-02-13T11:41:57.012Z,5.65
2023-02-13T11:43:28.502Z,4.57
2023-02-13T11:44:33.872Z,4.45
2023-02-13T11:45:36.003Z,5.38
2023-02-13T11:46:50.384Z,4.78
2023-02-13T11:47:55.426Z,4.95
2023-02-13T11:49:12.471Z,4.57
2023-02-13T11:50:40.942Z,4.77
2023-02-13T11:51:54.418Z,5.63
2023-02-13T11:53:22.001Z,4.75
2023-02-13T11:54:41.167Z,4.53
2023-02-13T11:56:03.998Z,4.00
2023-02-13T11:57:27.303Z,3.85
2023-02-13T11:58:35.975Z,4.30
2023-02-13T11:59:48.734Z,4.10
2023-02-13T12:01:08.172Z,5.25
2023-02-13T12:02:33.366Z,4.73
2023-02-13T12:03:35.821Z,5.83
2023-02-13T12:04:47.228Z,7.05
2023-02-13T12:06:13.077Z,4.30
2023-02-13T12:07:33.316Z,3.75
2023-02-13T12:08:46.936Z,3.80
2023-02-13T12:09:57.445Z,4.60
2023-02-13T12:11:04.945Z,6.25
2023-02-13T12:12:25.791Z,6.35
2023-02-13T12:13:33.419Z,3.60
2023-02-13T12:14:45.287Z,4.17
2023-02-13T12:15:54.745Z,3.60
2023-02-13T12:17:08.674Z,8.23
2023-02-13T12:18:41.323Z,3.83
2023-02-13T12:19:50.553Z,3.92
2023-02-13T12:21:02.217Z,3.38
2023-02-13T12:22:19.374Z,6.18
2023-02-13T12:23:43.442Z,3.40
2023-02-13T12:25:18.983Z,4.47
2023-02-13T12:26:53.708Z,3.83
2023-02-13T12:28:16.994Z,3.80
2023-02-13T12:29:55.436Z,4.07
2023-02-13T12:31:38.782Z,4.55
2023-02-13T12:32:56.921Z,4.80
2023-02-13T12:34:32.979Z,4.32
2023-02-13T12:36:09.216Z,5.60
2023-02-13T12:37:20.208Z,4.80
2023-02-13T12:38:43.838Z,4.30
2023-02-13T12:40:25.125Z,4.15
2023-02-13T12:41:31.240Z,5.68
2023-02-13T12:42:51.297Z,5.40
2023-02-13T12:44:09.519Z,4.50
2023-02-13T12:45:33.971Z,3.95
2023-02-13T12:46:56.446Z,3.53
2023-02-13T12:48:22.835Z,4.35
2023-02-13T12:49:50.823Z,4.20
2023-02-13T12:51:15.817Z,4.00
2023-02-13T12:52:34.109Z,3.83
2023-02-13T12:54:00.337Z,4.03
2023-02-13T12:55:12.470Z,3.47
2023-02-13T12:56:48.847Z,3.80
2023-02-13T12:58:01.184Z,3.47
2023-02-13T12:59:38.972Z,3.53
2023-02-13T13:00:51.602Z,3.38
2023-02-13T13:02:17.546Z,2.90
2023-02-13T13:04:14.635Z,3.08
2023-02-13T13:05:42.000Z,3.22
2023-02-13T13:07:18.991Z,3.05
2023-02-13T13:08:33.245Z,3.58
2023-02-13T13:10:12.824Z,3.70
2023-02-13T13:11:34.084Z,3.40
2023-02-13T13:12:59.977Z,3.07
2023-02-13T13:14:31.275Z,2.90
2023-02-13T13:15:58.946Z,2.70
2023-02-13T13:17:16.590Z,2.92
2023-02-13T13:18:34.967Z,2.70
2023-02-13T13:24:09.563Z,2.58
2023-02-13T13:25:30.375Z,2.20
2023-02-13T13:26:38.847Z,2.50
2023-02-13T13:27:49.012Z,2.40
2023-02-13T13:28:55.495Z,2.50
2023-02-13T13:30:27.782Z,2.60
2023-02-13T13:31:31.565Z,2.67
2023-02-13T13:32:37.250Z,2.70
2023-02-13T13:33:49.291Z,2.60
2023-02-13T13:34:54.473Z,2.78
2023-02-13T13:36:03.498Z,2.17
2023-02-13T13:37:38.731Z,2.72
2023-02-13T13:39:03.569Z,2.63
2023-02-13T13:40:27.532Z,3.10
2023-02-13T13:42:14.268Z,3.35
2023-02-13T13:43:41.288Z,3.05
2023-02-13T13:45:05.330Z,3.08
2023-02-13T13:46:47.983Z,3.10
2023-02-13T13:48:16.469Z,2.60
2023-02-13T13:49:34.380Z,2.80
2023-02-13T13:50:43.136Z,3.10
2023-02-13T13:51:47.207Z,3.60
2023-02-13T13:53:13.565Z,3.23
2023-02-13T13:54:16.569Z,3.03
2023-02-13T13:56:10.891Z,3.30
2023-02-13T13:57:15.658Z,3.10
2023-02-13T13:58:38.804Z,4.13
2023-02-13T13:59:52.375Z,3.80
2023-02-13T14:01:19.151Z,3.58
2023-02-13T14:02:20.918Z,3.70
2023-02-13T14:03:33.650Z,3.63
2023-02-13T14:04:43.584Z,3.53
2023-02-13T14:06:09.968Z,4.20
2023-02-13T14:07:22.725Z,4.00
2023-02-13T14:08:39.791Z,3.63
2023-02-13T14:09:43.675Z,3.70
2023-02-13T14:10:58.094Z,4.13
2023-02-13T14:12:40.843Z,4.22
2023-02-13T14:13:42.923Z,4.35
2023-02-13T14:14:45.770Z,4.10
2023-02-13T14:15:52.256Z,3.92
2023-02-13T14:16:58.725Z,4.13
2023-02-13T14:18:07.918Z,4.30
2023-02-13T14:19:37.360Z,4.17
2023-02-13T14:20:50.966Z,4.05
2023-02-13T14:21:54.298Z,4.57
2023-02-13T14:22:56.386Z,4.32
2023-02-13T14:24:03.906Z,4.13
2023-02-13T14:25:07.656Z,4.03
2023-02-13T14:26:15.374Z,4.28
2023-02-13T14:27:27.052Z,4.97
2023-02-13T14:28:29.389Z,4.90
2023-02-13T14:29:34.705Z,5.23
2023-02-13T14:30:40.324Z,4.90
2023-02-13T14:32:00.831Z,4.95
2023-02-13T14:33:26.995Z,4.45
2023-02-13T14:34:32.781Z,4.63
2023-02-13T14:35:37.501Z,5.00
2023-02-13T14:36:45.622Z,4.85
2023-02-13T14:37:57.639Z,4.70
2023-02-13T14:39:06.771Z,5.07
2023-02-13T14:40:17.366Z,5.28
2023-02-13T14:41:54.125Z,4.83
2023-02-13T14:43:08.095Z,4.90
2023-02-13T14:44:22.621Z,6.00
2023-02-13T14:45:32.304Z,5.20
2023-02-13T14:46:41.180Z,5.30
2023-02-13T14:47:53.295Z,5.25
2023-02-13T14:49:14.422Z,5.63
2023-02-13T14:50:23.831Z,5.15
2023-02-13T14:51:48.004Z,5.53
2023-02-13T14:52:50.271Z,4.90
2023-02-13T14:53:54.934Z,5.37
2023-02-13T14:55:04.678Z,5.05
2023-02-13T14:56:14.683Z,5.05
2023-02-13T14:57:34.397Z,5.43
2023-02-13T14:58:43.268Z,4.93
2023-02-13T14:59:53.048Z,5.30
2023-02-13T15:01:00.749Z,5.28
2023-02-13T15:02:28.497Z,5.50
2023-02-13T15:03:39.920Z,5.65
2023-02-13T15:04:45.081Z,5.30
2023-02-13T15:05:54.626Z,5.30
2023-02-13T15:06:59.119Z,5.05
2023-02-13T15:08:18.087Z,5.90
2023-02-13T15:09:22.297Z,5.60
2023-02-13T15:10:33.390Z,5.15
2023-02-13T15:11:38.140Z,5.30
2023-02-13T15:12:39.883Z,5.68
2023-02-13T15:13:41.694Z,5.78
2023-02-13T15:14:43.441Z,6.00
2023-02-13T15:15:51.558Z,6.05
2023-02-13T15:16:59.534Z,5.70
2023-02-13T15:18:08.177Z,5.85
2023-02-13T15:19:16.293Z,5.53